createdAt,value
2022-10-17T00:01:57.388Z,14.70
2022-10-17T00:06:16.420Z,14.70
2022-10-17T00:10:34.389Z,14.70
2022-10-17T00:14:46.314Z,14.70
2022-10-17T00:19:01.142Z,14.60
2022-10-17T00:23:11.395Z,14.60
2022-10-17T00:27:20.126Z,14.60
2022-10-17T00:31:36.230Z,14.60
2022-10-17T00:35:51.720Z,14.70
2022-10-17T00:40:05.532Z,14.70
2022-10-17T00:44:40.357Z,14.70
2022-10-17T00:48:55.596Z,14.70
2022-10-17T00:53:16.939Z,14.70
2022-10-17T00:57:35.782Z,14.80
2022-10-17T01:02:04.656Z,14.80
2022-10-17T01:06:13.940Z,14.90
2022-10-17T01:14:56.183Z,14.90
2022-10-17T01:23:56.860Z,15.00
2022-10-17T01:33:10.190Z,15.00
2022-10-17T01:37:37.191Z,15.00
2022-10-17T01:41:54.420Z,15.00
2022-10-17T01:46:22.604Z,15.00
2022-10-17T01:50:34.367Z,15.00
2022-10-17T01:55:04.004Z,15.00
2022-10-17T01:59:16.100Z,15.00
2022-10-17T02:03:27.421Z,15.00
2022-10-17T02:07:42.675Z,15.00
2022-10-17T02:12:14.075Z,15.00
2022-10-17T02:16:44.715Z,15.00
2022-10-17T02:21:05.211Z,15.00
2022-10-17T02:25:36.787Z,15.00
2022-10-17T02:29:55.053Z,15.00
2022-10-17T02:34:17.256Z,15.00
2022-10-17T02:38:32.059Z,15.00
2022-10-17T02:42:42.706Z,15.10
2022-10-17T02:46:56.558Z,15.10
2022-10-17T02:51:28.942Z,15.10
2022-10-17T02:56:00.668Z,15.10
2022-10-17T03:00:33.899Z,15.10
2022-10-17T03:04:52.197Z,15.10
2022-10-17T03:09:05.302Z,15.10
2022-10-17T03:13:16.147Z,15.10
2022-10-17T03:17:26.559Z,15.10
2022-10-17T03:21:41.454Z,15.00
2022-10-17T03:25:51.802Z,15.10
2022-10-17T03:30:06.005Z,15.10
2022-10-17T03:34:39.883Z,15.10
2022-10-17T03:38:52.199Z,15.10
2022-10-17T03:43:04.103Z,15.10
2022-10-17T03:47:14.218Z,15.20
2022-10-17T03:51:27.288Z,15.20
2022-10-17T03:55:48.228Z,15.20
2022-10-17T03:59:58.628Z,15.20
2022-10-17T04:04:14.588Z,15.20
2022-10-17T04:08:28.219Z,15.20
2022-10-17T04:12:58.264Z,15.20
2022-10-17T04:17:21.004Z,15.20
2022-10-17T04:21:56.994Z,15.20
2022-10-17T04:26:19.901Z,15.20
2022-10-17T04:30:33.340Z,15.20
2022-10-17T04:34:50.835Z,15.20
2022-10-17T04:43:52.617Z,15.20
2022-10-17T04:48:27.071Z,15.30
2022-10-17T04:52:48.259Z,15.30
2022-10-17T04:57:00.296Z,15.30
2022-10-17T05:01:25.788Z,15.30
2022-10-17T05:06:01.360Z,15.30
2022-10-17T05:10:10.674Z,15.40
2022-10-17T05:14:21.818Z,15.40
2022-10-17T05:18:53.114Z,15.40
2022-10-17T05:23:03.859Z,15.40
2022-10-17T05:27:18.571Z,15.50
2022-10-17T05:31:29.117Z,15.50
2022-10-17T05:35:39.359Z,15.40
2022-10-17T05:39:51.383Z,15.40
2022-10-17T05:44:05.849Z,15.40
2022-10-17T05:48:17.228Z,15.40
2022-10-17T05:52:27.838Z,15.40
2022-10-17T05:56:40.329Z,15.40
2022-10-17T06:00:52.126Z,15.40
2022-10-17T06:05:02.332Z,15.30
2022-10-17T06:09:14.145Z,15.30
2022-10-17T06:17:39.031Z,15.30
2022-10-17T06:21:47.674Z,15.30
2022-10-17T06:26:01.270Z,15.30
2022-10-17T06:30:10.349Z,15.40
2022-10-17T06:34:18.987Z,15.40
2022-10-17T06:38:27.802Z,15.50
2022-10-17T06:42:36.548Z,15.50
2022-10-17T06:46:45.114Z,15.70
2022-10-17T06:50:53.705Z,15.70
2022-10-17T06:59:12.194Z,15.70
2022-10-17T07:03:22.415Z,15.70
2022-10-17T07:07:32.918Z,15.80
2022-10-17T07:11:41.503Z,15.80
2022-10-17T07:15:50.223Z,15.80
2022-10-17T07:19:58.947Z,15.80
2022-10-17T07:24:07.768Z,15.90
2022-10-17T07:28:16.736Z,15.90
2022-10-17T07:32:25.889Z,16.00
2022-10-17T07:36:34.694Z,16.00
2022-10-17T07:40:43.261Z,16.10
2022-10-17T07:44:51.904Z,16.20
2022-10-17T07:49:00.480Z,16.30
2022-10-17T07:53:09.585Z,16.40
2022-10-17T07:57:18.157Z,16.40
2022-10-17T08:01:28.187Z,16.50
2022-10-17T08:05:36.758Z,16.70
2022-10-17T08:09:46.163Z,16.90
2022-10-17T08:13:54.781Z,17.00
2022-10-17T08:18:03.363Z,17.10
2022-10-17T08:22:11.923Z,17.20
2022-10-17T08:26:20.754Z,17.30
2022-10-17T08:30:30.693Z,17.40
2022-10-17T08:34:39.238Z,17.50
2022-10-17T08:38:52.608Z,17.50
2022-10-17T08:43:13.530Z,17.60
2022-10-17T08:47:40.519Z,17.70
2022-10-17T08:51:55.098Z,17.80
2022-10-17T08:56:15.350Z,17.90
2022-10-17T09:00:21.460Z,18.00
2022-10-17T09:04:42.733Z,18.10
2022-10-17T09:09:09.482Z,18.20
2022-10-17T09:13:31.329Z,18.30
2022-10-17T09:18:07.448Z,18.40
2022-10-17T09:22:23.588Z,18.40
2022-10-17T09:26:52.903Z,18.60
2022-10-17T09:31:06.445Z,18.60
2022-10-17T09:35:18.311Z,18.70
2022-10-17T09:39:29.259Z,18.60
2022-10-17T09:43:39.211Z,18.60
2022-10-17T09:48:09.058Z,18.50
2022-10-17T09:52:39.277Z,18.40
2022-10-17T09:57:08.757Z,18.40
2022-10-17T10:01:43.915Z,18.40
2022-10-17T10:06:08.248Z,18.30
2022-10-17T10:10:28.274Z,18.20
2022-10-17T10:14:39.750Z,18.20
2022-10-17T10:18:50.997Z,18.20
2022-10-17T10:23:22.555Z,18.20
2022-10-17T10:27:34.127Z,18.20
2022-10-17T10:31:42.532Z,18.20
2022-10-17T10:35:57.915Z,18.20
2022-10-17T10:40:09.894Z,18.20
2022-10-17T10:44:20.888Z,18.10
2022-10-17T10:48:33.701Z,18.10
2022-10-17T10:52:45.322Z,18.10
2022-10-17T10:57:03.562Z,18.10
2022-10-17T11:01:20.965Z,18.10
2022-10-17T11:05:44.663Z,18.10
2022-10-17T11:10:25.002Z,18.10
2022-10-17T11:14:42.821Z,18.10
2022-10-17T11:19:28.647Z,18.10
2022-10-17T11:23:48.630Z,18.10
2022-10-17T11:27:59.793Z,18.10
2022-10-17T11:32:16.120Z,18.10
2022-10-17T11:36:31.207Z,18.20
2022-10-17T11:40:43.373Z,18.20
2022-10-17T11:44:56.066Z,18.30
2022-10-17T11:49:10.430Z,18.40
2022-10-17T11:53:22.138Z,18.40
2022-10-17T11:57:56.635Z,18.40
2022-10-17T12:02:08.259Z,18.30
2022-10-17T12:06:29.541Z,18.30
2022-10-17T12:10:51.859Z,18.30
2022-10-17T12:15:24.121Z,18.30
2022-10-17T12:19:38.400Z,18.30
2022-10-17T12:23:55.398Z,18.30
2022-10-17T12:28:13.243Z,18.30
2022-10-17T12:32:21.796Z,18.30
2022-10-17T12:36:33.418Z,18.30
2022-10-17T12:40:49.366Z,18.30
2022-10-17T12:44:58.004Z,18.30
2022-10-17T12:49:26.044Z,18.30
2022-10-17T12:53:49.661Z,18.40
2022-10-17T12:58:05.151Z,18.40
2022-10-17T13:02:16.748Z,18.50
2022-10-17T13:06:29.406Z,18.60
2022-10-17T13:10:43.229Z,18.60
2022-10-17T13:14:53.349Z,18.70
2022-10-17T13:19:03.655Z,18.70
2022-10-17T13:23:31.541Z,18.70
2022-10-17T13:27:40.115Z,18.70
2022-10-17T13:31:54.723Z,18.60
2022-10-17T13:36:06.483Z,18.70
2022-10-17T13:40:40.769Z,18.60
2022-10-17T13:44:34.108Z,18.60
2022-10-17T13:48:43.651Z,18.60
2022-10-17T13:53:11.790Z,18.60
2022-10-17T13:57:29.478Z,18.50
2022-10-17T14:01:39.472Z,18.50
2022-10-17T14:10:37.405Z,18.70
2022-10-17T14:15:09.291Z,18.60
2022-10-17T14:18:59.710Z,18.70
2022-10-17T14:23:22.347Z,18.60
2022-10-17T14:27:34.887Z,18.60
2022-10-17T14:31:43.467Z,18.60
2022-10-17T14:35:57.561Z,18.60
2022-10-17T14:40:07.795Z,18.60
2022-10-17T14:44:32.987Z,18.60
2022-10-17T14:48:43.688Z,18.60
2022-10-17T14:53:10.153Z,18.60
2022-10-17T14:57:23.159Z,18.60
2022-10-17T15:01:31.969Z,18.50
2022-10-17T15:05:41.058Z,18.60
2022-10-17T15:09:51.484Z,18.60
2022-10-17T15:14:01.494Z,18.60
2022-10-17T15:18:12.440Z,18.50
2022-10-17T15:22:21.105Z,18.50
2022-10-17T15:26:32.800Z,18.40
2022-10-17T15:30:41.367Z,18.30
2022-10-17T15:34:50.951Z,18.30
2022-10-17T15:39:02.146Z,18.30
2022-10-17T15:43:10.980Z,18.20
2022-10-17T15:47:25.480Z,18.10
2022-10-17T15:51:34.824Z,18.00
2022-10-17T15:55:43.395Z,18.00
2022-10-17T15:59:53.190Z,18.00
2022-10-17T16:04:01.911Z,17.90
2022-10-17T16:08:11.990Z,17.90
2022-10-17T16:16:32.531Z,17.80
2022-10-17T16:20:41.491Z,17.70
2022-10-17T16:24:50.169Z,17.70
2022-10-17T16:29:00.527Z,17.70
2022-10-17T16:33:14.622Z,17.60
2022-10-17T16:37:23.249Z,17.60
2022-10-17T16:41:37.332Z,17.60
2022-10-17T16:45:45.922Z,17.60
2022-10-17T16:49:54.609Z,17.50
2022-10-17T16:54:04.554Z,17.50
2022-10-17T16:58:13.124Z,17.50
2022-10-17T17:02:21.703Z,17.50
2022-10-17T17:06:30.532Z,17.40
2022-10-17T17:10:40.879Z,17.40
2022-10-17T17:14:49.526Z,17.40
2022-10-17T17:19:00.884Z,17.30
2022-10-17T17:23:13.717Z,17.30
2022-10-17T17:27:31.495Z,17.30
2022-10-17T17:31:40.364Z,17.30
2022-10-17T17:35:49.059Z,17.20
2022-10-17T17:39:58.786Z,17.20
2022-10-17T17:44:11.214Z,17.20
2022-10-17T17:48:19.403Z,17.20
2022-10-17T17:52:29.866Z,17.20
2022-10-17T17:56:38.622Z,17.10
2022-10-17T18:00:47.171Z,17.10
2022-10-17T18:04:56.178Z,17.10
2022-10-17T18:09:05.573Z,17.10
2022-10-17T18:13:14.647Z,17.00
2022-10-17T18:17:23.297Z,17.00
2022-10-17T18:21:51.192Z,17.00
2022-10-17T18:26:01.687Z,17.00
2022-10-17T18:30:11.071Z,16.90
2022-10-17T18:34:19.684Z,16.90
2022-10-17T18:38:29.231Z,16.90
2022-10-17T18:42:37.818Z,16.80
2022-10-17T18:46:47.191Z,16.80
2022-10-17T18:50:56.267Z,16.80
2022-10-17T18:55:05.172Z,16.80
2022-10-17T18:59:33.526Z,16.70
2022-10-17T19:03:43.178Z,16.70
2022-10-17T19:07:51.747Z,16.70
2022-10-17T19:12:21.039Z,16.70
2022-10-17T19:16:32.719Z,16.70
2022-10-17T19:20:42.219Z,16.70
2022-10-17T19:25:10.341Z,16.70
2022-10-17T19:29:19.462Z,16.70
2022-10-17T19:37:37.865Z,16.60
2022-10-17T19:41:48.405Z,16.60
2022-10-17T19:46:02.141Z,16.60
2022-10-17T19:50:10.854Z,16.60
2022-10-17T19:54:20.323Z,16.50
2022-10-17T19:58:29.057Z,16.50
2022-10-17T20:02:37.608Z,16.50
2022-10-17T20:06:46.179Z,16.40
2022-10-17T20:10:54.745Z,16.40
2022-10-17T20:15:04.567Z,16.40
2022-10-17T20:19:33.987Z,16.40
2022-10-17T20:23:43.468Z,16.30
2022-10-17T20:27:52.160Z,16.40
2022-10-17T20:32:00.854Z,16.30
2022-10-17T20:36:11.358Z,16.30
2022-10-17T20:40:34.565Z,16.20
2022-10-17T20:44:30.662Z,16.20
2022-10-17T20:48:39.229Z,16.20
2022-10-17T20:52:49.140Z,16.20
2022-10-17T20:57:01.208Z,16.20
2022-10-17T21:01:10.870Z,16.20
2022-10-17T21:05:19.690Z,16.20
2022-10-17T21:09:28.264Z,16.10
2022-10-17T21:13:36.965Z,16.10
2022-10-17T21:17:45.543Z,16.10
2022-10-17T21:21:54.225Z,16.10
2022-10-17T21:26:04.099Z,16.10
2022-10-17T21:30:12.738Z,16.10
2022-10-17T21:34:25.192Z,16.10
2022-10-17T21:38:37.285Z,16.10
2022-10-17T21:42:45.863Z,16.10
2022-10-17T21:46:55.394Z,16.10
2022-10-17T21:51:06.708Z,16.10
2022-10-17T21:55:15.360Z,16.00
2022-10-17T21:59:23.962Z,16.00
2022-10-17T22:03:39.313Z,16.00
2022-10-17T22:07:48.374Z,16.00
2022-10-17T22:11:57.585Z,16.00
2022-10-17T22:16:08.592Z,15.90
2022-10-17T22:20:17.228Z,16.00
2022-10-17T22:24:25.771Z,15.90
2022-10-17T22:28:34.386Z,15.90
2022-10-17T22:32:43.264Z,16.00
2022-10-17T22:36:51.827Z,15.90
2022-10-17T22:41:00.379Z,15.90
2022-10-17T22:45:09.385Z,15.90
2022-10-17T22:49:19.364Z,15.90
2022-10-17T22:53:29.800Z,15.80
2022-10-17T22:57:38.470Z,15.80
2022-10-17T23:01:47.096Z,15.80
2022-10-17T23:05:56.831Z,15.70
2022-10-17T23:10:05.637Z,15.80
2022-10-17T23:14:14.190Z,15.70
2022-10-17T23:18:25.985Z,15.80
2022-10-17T23:22:34.590Z,15.70
2022-10-17T23:26:43.123Z,15.80
2022-10-17T23:30:51.669Z,15.70
2022-10-17T23:35:00.166Z,15.80
2022-10-17T23:39:09.765Z,15.80
2022-10-17T23:43:19.352Z,15.80
2022-10-17T23:47:47.230Z,15.70
2022-10-17T23:51:55.786Z,15.70
2022-10-17T23:56:23.698Z,15.70
